createdAt,value
2023-03-30T00:01:43.056Z,6.50
2023-03-30T00:06:45.985Z,6.60
2023-03-30T00:11:49.177Z,6.60
2023-03-30T00:16:53.498Z,6.70
2023-03-30T00:21:56.772Z,6.60
2023-03-30T00:26:59.954Z,6.60
2023-03-30T00:32:03.573Z,6.60
2023-03-30T00:37:06.462Z,6.60
2023-03-30T00:42:17.781Z,6.60
2023-03-30T00:47:21.466Z,6.60
2023-03-30T00:52:25.110Z,6.60
2023-03-30T00:57:28.752Z,6.50
2023-03-30T01:02:39.743Z,6.50
2023-03-30T01:07:46.510Z,6.60
2023-03-30T01:12:50.057Z,6.60
2023-03-30T01:18:08.962Z,6.50
2023-03-30T01:23:27.432Z,6.50
2023-03-30T01:28:49.107Z,6.40
2023-03-30T01:34:57.840Z,6.30
2023-03-30T01:40:17.395Z,6.00
2023-03-30T01:45:26.259Z,5.80
2023-03-30T01:51:06.203Z,5.60
2023-03-30T01:56:51.879Z,5.40
2023-03-30T02:02:04.328Z,5.10
2023-03-30T02:07:19.325Z,4.90
2023-03-30T02:12:23.916Z,4.70
2023-03-30T02:17:30.872Z,4.60
2023-03-30T02:22:34.190Z,4.50
2023-03-30T02:27:38.644Z,4.40
2023-03-30T02:32:52.129Z,4.20
2023-03-30T02:38:20.144Z,4.10
2023-03-30T02:44:03.828Z,4.00
2023-03-30T02:49:25.898Z,3.90
2023-03-30T02:54:54.225Z,4.00
2023-03-30T03:00:24.716Z,4.00
2023-03-30T03:05:28.836Z,4.10
2023-03-30T03:10:36.314Z,4.20
2023-03-30T03:15:39.440Z,4.30
2023-03-30T03:20:42.956Z,4.40
2023-03-30T03:25:45.926Z,4.60
2023-03-30T03:30:52.167Z,4.70
2023-03-30T03:35:55.636Z,4.80
2023-03-30T03:40:59.809Z,4.80
2023-03-30T03:46:03.229Z,4.90
2023-03-30T03:51:07.163Z,5.00
2023-03-30T03:56:11.657Z,5.00
2023-03-30T04:01:15.409Z,5.10
2023-03-30T04:06:18.493Z,5.10
2023-03-30T04:11:22.360Z,5.10
2023-03-30T04:16:25.474Z,5.10
2023-03-30T04:21:29.956Z,5.10
2023-03-30T04:26:32.998Z,5.10
2023-03-30T04:31:38.325Z,5.10
2023-03-30T04:36:44.446Z,5.00
2023-03-30T04:41:47.905Z,5.00
2023-03-30T04:46:50.992Z,5.00
2023-03-30T04:51:54.748Z,5.10
2023-03-30T04:56:57.738Z,5.20
2023-03-30T05:02:01.012Z,5.30
2023-03-30T05:07:04.870Z,5.40
2023-03-30T05:12:08.149Z,5.50
2023-03-30T05:17:11.736Z,5.60
2023-03-30T05:22:16.380Z,5.80
2023-03-30T05:27:20.045Z,5.90
2023-03-30T05:32:23.162Z,6.00
2023-03-30T05:37:26.675Z,6.20
2023-03-30T05:42:29.608Z,6.40
2023-03-30T05:47:32.669Z,6.50
2023-03-30T05:52:35.618Z,6.60
2023-03-30T05:57:38.665Z,6.70
2023-03-30T06:02:41.800Z,6.90
2023-03-30T06:07:45.861Z,7.00
2023-03-30T06:12:48.812Z,7.20
2023-03-30T06:17:52.922Z,7.40
2023-03-30T06:22:56.536Z,7.60
2023-03-30T06:27:59.531Z,7.70
2023-03-30T06:33:02.552Z,7.80
2023-03-30T06:38:05.640Z,8.00
2023-03-30T06:43:18.373Z,8.10
2023-03-30T06:48:24.057Z,8.20
2023-03-30T06:53:27.124Z,8.30
2023-03-30T06:58:30.756Z,8.30
2023-03-30T07:03:33.845Z,8.40
2023-03-30T07:08:37.295Z,8.40
2023-03-30T07:13:40.832Z,8.40
2023-03-30T07:18:43.784Z,8.50
2023-03-30T07:23:46.750Z,8.60
2023-03-30T07:28:49.732Z,8.70
2023-03-30T07:33:53.041Z,8.90
2023-03-30T07:38:58.500Z,9.00
2023-03-30T07:44:01.800Z,9.30
2023-03-30T07:49:04.580Z,9.50
2023-03-30T07:54:10.340Z,9.80
2023-03-30T07:59:13.665Z,10.20
2023-03-30T08:04:18.250Z,10.60
2023-03-30T08:09:21.451Z,11.10
2023-03-30T08:14:26.556Z,11.40
2023-03-30T08:19:29.587Z,11.70
2023-03-30T08:24:33.073Z,11.70
2023-03-30T08:29:36.048Z,11.60
2023-03-30T08:34:39.410Z,11.40
2023-03-30T08:39:42.501Z,11.30
2023-03-30T08:44:54.155Z,11.20
2023-03-30T08:50:34.481Z,11.10
2023-03-30T08:56:00.884Z,11.10
2023-03-30T09:01:07.425Z,11.10
2023-03-30T09:06:26.819Z,11.20
2023-03-30T09:11:37.128Z,11.20
2023-03-30T09:16:56.052Z,11.20
2023-03-30T09:22:03.797Z,11.30
2023-03-30T09:27:41.359Z,11.50
2023-03-30T09:33:00.263Z,11.60
2023-03-30T09:38:04.307Z,11.70
2023-03-30T09:43:19.287Z,11.90
2023-03-30T09:48:22.108Z,12.30
2023-03-30T09:53:29.297Z,12.70
2023-03-30T09:58:34.627Z,13.00
2023-03-30T10:03:38.060Z,13.30
2023-03-30T10:08:52.233Z,13.50
2023-03-30T10:13:55.211Z,13.50
2023-03-30T10:19:04.934Z,13.40
2023-03-30T10:24:23.379Z,13.30
2023-03-30T10:29:29.624Z,13.30
2023-03-30T10:34:46.260Z,13.40
2023-03-30T10:39:51.236Z,13.60
2023-03-30T10:45:06.793Z,13.70
2023-03-30T10:50:12.803Z,13.70
2023-03-30T10:55:38.896Z,13.80
2023-03-30T11:01:26.720Z,13.90
2023-03-30T11:06:40.110Z,14.20
2023-03-30T11:11:56.424Z,14.50
2023-03-30T11:17:10.753Z,14.60
2023-03-30T11:22:33.430Z,14.30
2023-03-30T11:27:48.273Z,14.10
2023-03-30T11:33:08.262Z,14.00
2023-03-30T11:38:57.136Z,13.90
2023-03-30T11:44:00.123Z,14.00
2023-03-30T11:49:33.463Z,14.30
2023-03-30T11:55:08.358Z,14.60
2023-03-30T12:00:34.653Z,14.80
2023-03-30T12:05:53.325Z,14.90
2023-03-30T12:11:12.163Z,15.00
2023-03-30T12:16:29.334Z,15.20
2023-03-30T12:21:38.229Z,15.70
2023-03-30T12:26:43.780Z,15.90
2023-03-30T12:32:03.738Z,16.00
2023-03-30T12:37:35.013Z,15.90
2023-03-30T12:42:46.937Z,15.80
2023-03-30T12:48:17.079Z,15.80
2023-03-30T12:53:31.776Z,15.90
2023-03-30T12:59:31.162Z,16.10
2023-03-30T13:04:40.555Z,16.10
2023-03-30T13:10:06.543Z,16.00
2023-03-30T13:15:42.366Z,16.00
2023-03-30T13:20:48.299Z,15.90
2023-03-30T13:26:39.760Z,15.80
2023-03-30T13:32:12.955Z,15.70
2023-03-30T13:37:51.722Z,15.60
2023-03-30T13:43:17.084Z,15.60
2023-03-30T13:48:41.816Z,15.60
2023-03-30T13:53:57.019Z,15.60
2023-03-30T13:59:07.610Z,15.60
2023-03-30T14:04:13.837Z,15.70
2023-03-30T14:09:26.460Z,15.80
2023-03-30T14:14:30.117Z,15.80
2023-03-30T14:19:37.000Z,15.80
2023-03-30T14:24:40.029Z,15.80
2023-03-30T14:29:49.700Z,16.00
2023-03-30T14:34:54.687Z,16.00
2023-03-30T14:39:57.757Z,15.90
2023-03-30T14:45:01.241Z,15.80
2023-03-30T14:50:08.865Z,15.70
2023-03-30T14:55:24.121Z,15.70
2023-03-30T15:00:46.095Z,15.80
2023-03-30T15:05:49.134Z,15.90
2023-03-30T15:10:58.653Z,15.90
2023-03-30T15:16:02.521Z,15.90
2023-03-30T15:21:07.976Z,15.80
2023-03-30T15:26:12.683Z,15.70
2023-03-30T15:31:16.529Z,15.70
2023-03-30T15:36:26.795Z,15.70
2023-03-30T15:42:04.315Z,15.60
2023-03-30T15:47:17.977Z,15.50
2023-03-30T15:52:34.777Z,15.40
2023-03-30T15:57:46.118Z,15.20
2023-03-30T16:02:59.356Z,15.00
2023-03-30T16:08:02.580Z,14.70
2023-03-30T16:13:07.185Z,14.30
2023-03-30T16:18:12.481Z,13.90
2023-03-30T16:23:15.498Z,13.60
2023-03-30T16:28:18.963Z,13.40
2023-03-30T16:33:21.950Z,13.20
2023-03-30T16:38:25.486Z,13.00
2023-03-30T16:43:28.536Z,12.90
2023-03-30T16:48:31.567Z,12.80
2023-03-30T16:53:34.650Z,12.60
2023-03-30T16:58:37.954Z,12.40
2023-03-30T17:03:41.305Z,12.20
2023-03-30T17:08:44.861Z,12.10
2023-03-30T17:13:49.071Z,12.10
2023-03-30T17:18:52.066Z,12.10
2023-03-30T17:23:55.328Z,12.00
2023-03-30T17:28:58.275Z,11.90
2023-03-30T17:34:01.333Z,11.90
2023-03-30T17:39:05.055Z,11.90
2023-03-30T17:44:08.241Z,11.80
2023-03-30T17:49:17.848Z,11.80
2023-03-30T17:54:20.921Z,11.80
2023-03-30T17:59:23.876Z,11.70
2023-03-30T18:04:27.821Z,11.70
2023-03-30T18:09:31.333Z,11.60
2023-03-30T18:14:34.405Z,11.50
2023-03-30T18:19:37.327Z,11.50
2023-03-30T18:24:41.137Z,11.40
2023-03-30T18:29:47.133Z,11.40
2023-03-30T18:34:50.071Z,11.30
2023-03-30T18:39:53.487Z,11.30
2023-03-30T18:44:56.565Z,11.20
2023-03-30T18:49:59.557Z,11.20
2023-03-30T18:55:02.951Z,11.20
2023-03-30T19:00:21.569Z,11.10
2023-03-30T19:05:27.448Z,11.10
2023-03-30T19:10:38.784Z,11.10
2023-03-30T19:15:42.551Z,11.10
2023-03-30T19:20:46.407Z,10.90
2023-03-30T19:25:49.906Z,10.90
2023-03-30T19:30:53.365Z,10.80
2023-03-30T19:35:56.390Z,10.70
2023-03-30T19:41:04.883Z,10.70
2023-03-30T19:46:08.817Z,10.70
2023-03-30T19:51:14.826Z,10.60
2023-03-30T19:56:18.443Z,10.50
2023-03-30T20:01:21.946Z,10.50
2023-03-30T20:06:25.836Z,10.40
2023-03-30T20:11:29.164Z,10.40
2023-03-30T20:16:35.151Z,10.30
2023-03-30T20:21:39.270Z,10.40
2023-03-30T20:26:42.382Z,10.30
2023-03-30T20:31:46.326Z,10.40
2023-03-30T20:36:49.963Z,10.40
2023-03-30T20:41:58.324Z,10.40
2023-03-30T20:47:04.071Z,10.40
2023-03-30T20:52:07.158Z,10.40
2023-03-30T20:57:10.484Z,10.40
2023-03-30T21:02:14.611Z,10.40
2023-03-30T21:07:18.166Z,10.40
2023-03-30T21:12:21.392Z,10.40
2023-03-30T21:17:24.771Z,10.30
2023-03-30T21:22:29.878Z,10.20
2023-03-30T21:27:32.743Z,10.10
2023-03-30T21:32:35.945Z,10.00
2023-03-30T21:37:38.966Z,9.90
2023-03-30T21:42:41.758Z,9.90
2023-03-30T21:47:44.537Z,9.80
2023-03-30T21:52:48.339Z,9.80
2023-03-30T21:57:51.296Z,9.70
2023-03-30T22:02:54.320Z,9.70
2023-03-30T22:07:57.421Z,9.70
2023-03-30T22:13:00.324Z,9.80
2023-03-30T22:18:06.954Z,9.80
2023-03-30T22:23:09.945Z,9.80
2023-03-30T22:28:13.037Z,9.80
2023-03-30T22:33:17.370Z,9.80
2023-03-30T22:38:20.639Z,9.80
2023-03-30T22:43:24.224Z,9.80
2023-03-30T22:48:27.279Z,9.80
2023-03-30T22:53:31.682Z,9.70
2023-03-30T22:58:35.990Z,9.70
2023-03-30T23:03:39.326Z,9.70
2023-03-30T23:08:42.582Z,9.70
2023-03-30T23:13:45.637Z,9.70
2023-03-30T23:18:50.467Z,9.60
2023-03-30T23:23:53.473Z,9.60
2023-03-30T23:28:57.161Z,9.60
2023-03-30T23:34:00.491Z,9.50
2023-03-30T23:39:03.642Z,9.50
2023-03-30T23:44:06.723Z,9.50
2023-03-30T23:49:10.103Z,9.40
2023-03-30T23:54:15.759Z,9.40
2023-03-30T23:59:18.589Z,9.40
